Artic, Indiana
Current Conditions -  °F | °C
As of 1:35 PM on Sunday 21 Dec 2014 (Local Time) from KGWB Reporting Station
Overcast Overcast  
Wind Chill: 29°   Ceiling: 5000
Heat Index: 34°   Visibility: 7mi
Dew Point: 25°   Wind: 6mph
Humidity: 70%   Direction: 190°S
Pressure: 30.22"   Gusts: NA
Location:  41.4294°N, 84.8751°W
Report Text: KGWB 211835Z AUTO 19005KT 7SM OVC050 01/M04 A3022 RMK AO2
Loading
Personal Weather Stations






























Interactive Weather Map New forecast layout! Learn more

10-Day Weather Forecast

Advertisements
Track Severe Weather on mobile